Lowry, MN

7:20 PM CDT on September 20, 2014 (GMT -0500)
Morris Municipal | Change Station
CLOSE
Current Station
Airport
Location: Morris,
Elevation: 1129 ft
Nearby Weather Stations

Elev 1129 ft 45.57 °N, 95.97 °W | Updated 14 minutes ago

Clear
Clear
61 °F
Feels Like 61 °F
N
7
Wind Variable Wind from NW

Today
High -- | Low -- °F
--% Chance of Precip.
Yesterday
High -- | Low -- °F
Precip. -- in
7:06 AM 7:23 PM
Waning Crescent, 9% visible
Pressure 29.88 in
Visibility 10.0 miles
Clouds Clear
Dew Point 54 °F
Humidity 77%
Rainfall 0.38 in
Snow Depth Not available.
UV 0 out of 12
Pollen 2.10 out of 12
Air Quality Not available.
Flu Activity Not available.
METAR KMOX 210006Z AUTO 31006KT 10SM CLR 16/12 A2988 RMK AO2

More Conditions Fewer Conditions

Pressure 29.88 in
Visibility 10.0 miles
Clouds Clear
Dew Point 54 °F
Humidity 77%
Rainfall 0.38 in
Snow Depth Not available.
UV 0 out of 12
Pollen 2.10 out of 12
Air Quality Not available.
Flu Activity Not available.
METAR KMOX 210006Z AUTO 31006KT 10SM CLR 16/12 A2988 RMK AO2

More Conditions Fewer Conditions

10-Day Weather Forecast

Almanac

Astronomy

Sep. 20, 2014 Rise Set
Actual Time 7:06 AM CDT 7:23 PM CDT
Civil Twilight 6:36 AM CDT 7:53 PM CDT
Nautical Twilight 6:01 AM CDT 8:28 PM CDT
Astronomical Twilight 5:25 AM CDT 9:04 PM CDT
Moon 3:38 AM CDT (9/20) 5:34 PM CDT (9/20)
Length of Visible Light 13h 16m
Length of Day
12h 16m
Tomorrow will be 3m 11s shorter.
Waning Crescent, 9% of the Moon is Illuminated
Today
Waning Crescent
Sep 24
New
Oct 1
First Quarter
Oct 8
Full
Oct 15
Last Quarter

Today's Extremes

State Highs State Lows

Community

WunderPhotos

Upload Photos

1,755,000 photos uploaded!

WunderBlogs® & News

Nearby

Snow Depth

Station Depth Elevation
No new snow has been reported.

Earthquake Activity

City Distance Mag. Time & Date
No recent earthquake activity has been reported nearby.
Minimum magnitude displayed is 2.5.

Coastal Water Temperatures

Place Temperature
No Stations Reporting

Nearby Weather Stations